createdAt,value
2018-06-23T00:02:16.825Z,14.46
2018-06-23T00:04:46.807Z,14.51
2018-06-23T00:07:16.985Z,14.54
2018-06-23T00:09:47.312Z,14.55
2018-06-23T00:12:17.514Z,14.55
2018-06-23T00:14:48.326Z,14.58
2018-06-23T00:17:18.326Z,14.58
2018-06-23T00:19:48.534Z,14.58
2018-06-23T00:22:18.646Z,14.58
2018-06-23T00:24:48.903Z,14.59
2018-06-23T00:27:18.909Z,14.60
2018-06-23T00:29:48.966Z,14.61
2018-06-23T00:32:18.949Z,14.61
2018-06-23T00:34:49.328Z,14.59
2018-06-23T00:37:19.567Z,14.59
2018-06-23T00:39:49.759Z,14.60
2018-06-23T00:42:21.369Z,14.61
2018-06-23T00:44:51.835Z,14.63
2018-06-23T00:47:22.030Z,14.63
2018-06-23T00:49:52.222Z,14.64
2018-06-23T00:52:22.286Z,14.64
2018-06-23T00:54:52.834Z,14.63
2018-06-23T00:57:23.384Z,14.65
2018-06-23T00:59:53.559Z,14.66
2018-06-23T01:02:24.353Z,14.66
2018-06-23T01:04:54.643Z,14.67
2018-06-23T01:07:25.252Z,14.68
2018-06-23T01:09:55.440Z,14.67
2018-06-23T01:12:25.630Z,14.67
2018-06-23T01:14:55.841Z,14.62
2018-06-23T01:17:25.906Z,14.60
2018-06-23T01:19:55.860Z,14.57
2018-06-23T01:22:25.991Z,14.55
2018-06-23T01:24:55.880Z,14.51
2018-06-23T01:27:27.013Z,14.49
2018-06-23T01:29:57.283Z,14.45
2018-06-23T01:32:27.362Z,14.43
2018-06-23T01:34:57.508Z,14.44
2018-06-23T01:37:27.647Z,14.44
2018-06-23T01:39:58.084Z,14.40
2018-06-23T01:42:28.451Z,14.38
2018-06-23T01:44:58.587Z,14.37
2018-06-23T01:47:28.789Z,14.36
2018-06-23T01:49:58.836Z,14.34
2018-06-23T01:52:29.004Z,14.31
2018-06-23T01:54:59.327Z,14.28
2018-06-23T01:57:29.246Z,14.27
2018-06-23T01:59:59.355Z,14.25
2018-06-23T02:02:29.717Z,14.24
2018-06-23T02:05:00.092Z,14.22
2018-06-23T02:07:30.399Z,14.22
2018-06-23T02:10:00.565Z,14.22
2018-06-23T02:12:30.727Z,14.20
2018-06-23T02:15:05.983Z,14.19
2018-06-23T02:17:41.393Z,14.19
2018-06-23T02:20:16.582Z,14.21
2018-06-23T02:22:51.723Z,14.21
2018-06-23T02:25:26.838Z,14.22
2018-06-23T02:28:01.995Z,14.22
2018-06-23T02:30:36.146Z,14.23
2018-06-23T02:33:11.267Z,14.26
2018-06-23T02:35:41.993Z,14.25
2018-06-23T02:38:12.390Z,14.26
2018-06-23T02:40:42.502Z,14.27
2018-06-23T02:43:12.550Z,14.27
2018-06-23T02:45:42.400Z,14.28
2018-06-23T02:48:12.361Z,14.29
2018-06-23T02:50:43.911Z,14.32
2018-06-23T02:53:14.341Z,14.34
2018-06-23T02:55:44.608Z,14.33
2018-06-23T02:58:14.879Z,14.34
2018-06-23T03:00:45.616Z,14.35
2018-06-23T03:03:15.735Z,14.37
2018-06-23T03:05:45.951Z,14.38
2018-06-23T03:08:16.141Z,14.40
2018-06-23T03:10:47.164Z,14.44
2018-06-23T03:13:17.322Z,14.46
2018-06-23T03:15:47.340Z,14.51
2018-06-23T03:18:17.407Z,14.54
2018-06-23T03:20:47.479Z,14.55
2018-06-23T03:23:17.686Z,14.57
2018-06-23T03:25:47.903Z,14.58
2018-06-23T03:28:17.846Z,14.58
2018-06-23T03:30:48.131Z,14.59
2018-06-23T03:33:18.234Z,14.62
2018-06-23T03:35:48.470Z,14.65
2018-06-23T03:38:18.657Z,14.68
2018-06-23T03:40:48.524Z,14.72
2018-06-23T03:43:18.932Z,14.73
2018-06-23T03:45:50.750Z,14.73
2018-06-23T03:48:20.756Z,14.75
2018-06-23T03:50:50.978Z,14.77
2018-06-23T03:53:21.104Z,14.80
2018-06-23T03:55:51.316Z,14.77
2018-06-23T03:58:21.469Z,14.76
2018-06-23T04:00:56.927Z,14.75
2018-06-23T04:03:28.292Z,14.73
2018-06-23T04:05:58.859Z,14.69
2018-06-23T04:08:28.806Z,14.67
2018-06-23T04:10:59.395Z,14.66
2018-06-23T04:13:29.529Z,14.66
2018-06-23T04:16:00.514Z,14.65
2018-06-23T04:18:30.677Z,14.64
2018-06-23T04:21:00.919Z,14.64
2018-06-23T04:23:31.471Z,14.62
2018-06-23T04:26:01.563Z,14.61
2018-06-23T04:28:31.691Z,14.59
2018-06-23T04:31:01.899Z,14.58
2018-06-23T04:33:32.001Z,14.56
2018-06-23T04:36:01.900Z,14.57
2018-06-23T04:38:32.439Z,14.55
2018-06-23T04:41:02.856Z,14.54
2018-06-23T04:43:36.024Z,14.51
2018-06-23T04:46:07.069Z,14.52
2018-06-23T04:48:37.161Z,14.50
2018-06-23T04:51:07.344Z,14.51
2018-06-23T04:53:46.920Z,14.54
2018-06-23T04:56:17.847Z,14.56
2018-06-23T04:58:47.807Z,14.58
2018-06-23T05:01:17.981Z,14.61
2018-06-23T05:03:48.314Z,14.65
2018-06-23T05:06:20.212Z,14.69
2018-06-23T05:08:50.625Z,14.72
2018-06-23T05:11:20.874Z,14.75
2018-06-23T05:13:51.500Z,14.78
2018-06-23T05:16:21.712Z,14.78
2018-06-23T05:18:52.121Z,14.77
2018-06-23T05:21:22.379Z,14.79
2018-06-23T05:23:54.383Z,14.82
2018-06-23T05:26:24.746Z,14.83
2018-06-23T05:28:54.951Z,14.84
2018-06-23T05:31:25.366Z,14.87
2018-06-23T05:33:55.867Z,14.93
2018-06-23T05:36:25.907Z,14.95
2018-06-23T05:38:56.079Z,14.99
2018-06-23T05:41:26.256Z,14.99
2018-06-23T05:43:56.426Z,15.04
2018-06-23T05:46:26.398Z,15.13
2018-06-23T05:48:56.662Z,15.17
2018-06-23T05:51:26.974Z,15.21
2018-06-23T05:53:57.222Z,15.23
2018-06-23T05:56:27.206Z,15.31
2018-06-23T05:58:57.694Z,15.41
2018-06-23T06:01:27.851Z,15.55
2018-06-23T06:03:58.042Z,15.65
2018-06-23T06:06:28.487Z,15.70
2018-06-23T06:08:58.914Z,15.75
2018-06-23T06:11:29.566Z,15.79
2018-06-23T06:13:59.818Z,15.84
2018-06-23T06:16:51.737Z,15.95
2018-06-23T06:19:21.720Z,15.97
2018-06-23T06:21:52.551Z,15.94
2018-06-23T06:24:22.590Z,15.94
2018-06-23T06:26:52.700Z,15.95
2018-06-23T06:29:22.779Z,15.98
2018-06-23T06:31:53.160Z,16.01
2018-06-23T06:34:23.226Z,16.02
2018-06-23T06:36:53.697Z,16.04
2018-06-23T06:39:23.779Z,16.03
2018-06-23T06:41:54.959Z,16.02
2018-06-23T06:44:25.111Z,16.04
2018-06-23T06:46:55.791Z,16.10
2018-06-23T06:49:26.117Z,16.19
2018-06-23T06:51:56.224Z,16.26
2018-06-23T06:54:27.016Z,16.38
2018-06-23T06:56:57.455Z,16.48
2018-06-23T06:59:27.621Z,16.51
2018-06-23T07:01:57.913Z,16.56
2018-06-23T07:04:28.425Z,16.64
2018-06-23T07:06:58.663Z,16.67
2018-06-23T07:09:29.456Z,16.70
2018-06-23T07:11:59.572Z,16.75
2018-06-23T07:14:29.605Z,16.80
2018-06-23T07:16:59.831Z,16.85
2018-06-23T07:19:30.324Z,16.92
2018-06-23T07:22:01.308Z,16.99
2018-06-23T07:24:31.049Z,17.05
2018-06-23T07:27:01.113Z,17.06
2018-06-23T07:29:31.407Z,17.13
2018-06-23T07:32:01.618Z,17.22
2018-06-23T07:34:32.561Z,17.28
2018-06-23T07:37:03.170Z,17.34
2018-06-23T07:39:33.387Z,17.38
2018-06-23T07:42:03.251Z,17.36
2018-06-23T07:44:33.653Z,17.32
2018-06-23T07:47:03.942Z,17.32
2018-06-23T07:49:34.726Z,17.33
2018-06-23T07:52:05.377Z,17.30
2018-06-23T07:54:35.726Z,17.30
2018-06-23T07:57:06.475Z,17.33
2018-06-23T07:59:37.401Z,17.38
2018-06-23T08:02:07.860Z,17.45
2018-06-23T08:04:37.998Z,17.48
2018-06-23T08:07:08.023Z,17.45
2018-06-23T08:09:38.276Z,17.40
2018-06-23T08:12:08.584Z,17.37
2018-06-23T08:14:39.046Z,17.34
2018-06-23T08:17:10.408Z,17.28
2018-06-23T08:19:40.758Z,17.29
2018-06-23T08:22:10.925Z,17.26
2018-06-23T08:24:41.225Z,17.22
2018-06-23T08:27:12.148Z,17.18
2018-06-23T08:29:42.567Z,17.14
2018-06-23T08:32:12.743Z,17.09
2018-06-23T08:34:43.176Z,17.05
2018-06-23T08:37:13.855Z,17.03
2018-06-23T08:39:44.123Z,17.05
2018-06-23T08:42:14.303Z,17.04
2018-06-23T08:44:44.542Z,17.06
2018-06-23T08:47:15.263Z,17.08
2018-06-23T08:49:45.497Z,17.08
2018-06-23T08:52:15.927Z,17.06
2018-06-23T08:54:46.283Z,17.02
2018-06-23T08:57:16.375Z,17.02
2018-06-23T08:59:46.560Z,17.01
2018-06-23T09:02:16.801Z,16.99
2018-06-23T09:04:46.974Z,16.99
2018-06-23T09:07:17.210Z,16.99
2018-06-23T09:09:47.494Z,16.97
2018-06-23T09:12:17.799Z,16.95
2018-06-23T09:14:54.604Z,16.95
2018-06-23T09:17:24.820Z,16.95
2018-06-23T09:19:55.066Z,16.94
2018-06-23T09:22:25.457Z,16.94
2018-06-23T09:24:56.138Z,16.93
2018-06-23T09:27:26.224Z,16.94
2018-06-23T09:29:56.556Z,16.94
2018-06-23T09:32:26.773Z,16.95
2018-06-23T09:34:56.854Z,16.95
2018-06-23T09:37:27.094Z,16.95
2018-06-23T09:39:57.271Z,16.98
2018-06-23T09:42:27.489Z,17.01
2018-06-23T09:44:57.876Z,17.05
2018-06-23T09:47:28.083Z,17.06
2018-06-23T09:50:01.222Z,17.06
2018-06-23T09:52:32.040Z,17.09
2018-06-23T09:55:02.777Z,17.12
2018-06-23T09:57:32.917Z,17.15
2018-06-23T10:00:03.406Z,17.16
2018-06-23T10:02:33.523Z,17.18
2018-06-23T10:05:04.395Z,17.23
2018-06-23T10:07:34.582Z,17.28
2018-06-23T10:10:06.543Z,17.35
2018-06-23T10:12:36.583Z,17.43
2018-06-23T10:15:06.798Z,17.52
2018-06-23T10:17:36.840Z,17.58
2018-06-23T10:20:07.530Z,17.64
2018-06-23T10:22:37.666Z,17.71
2018-06-23T10:25:08.761Z,17.77
2018-06-23T10:27:38.883Z,17.82
2018-06-23T10:30:09.091Z,17.87
2018-06-23T10:32:46.016Z,17.90
2018-06-23T10:35:16.976Z,17.91
2018-06-23T10:37:47.909Z,17.92
2018-06-23T10:40:18.056Z,17.93
2018-06-23T10:42:48.243Z,17.86
2018-06-23T10:45:18.527Z,17.89
2018-06-23T10:47:48.721Z,17.91
2018-06-23T10:50:18.987Z,17.91
2018-06-23T10:52:49.254Z,17.94
2018-06-23T10:55:19.430Z,17.96
2018-06-23T10:57:49.713Z,17.98
2018-06-23T11:00:21.463Z,18.08
2018-06-23T11:02:51.802Z,18.21
2018-06-23T11:05:22.108Z,18.32
2018-06-23T11:07:52.493Z,18.37
2018-06-23T11:10:22.591Z,18.40
2018-06-23T11:12:52.978Z,18.42
2018-06-23T11:15:23.163Z,18.44
2018-06-23T11:17:54.818Z,18.45
2018-06-23T11:20:25.174Z,18.54
2018-06-23T11:22:55.537Z,18.63
2018-06-23T11:25:25.742Z,18.71
2018-06-23T11:27:56.571Z,18.74
2018-06-23T11:30:26.898Z,18.78
2018-06-23T11:32:57.304Z,18.78
2018-06-23T11:35:27.559Z,18.80
2018-06-23T11:37:57.787Z,18.81
2018-06-23T11:40:28.209Z,18.79
2018-06-23T11:42:58.394Z,18.80
2018-06-23T11:45:28.840Z,18.83
2018-06-23T11:47:58.939Z,18.87
2018-06-23T11:50:29.465Z,18.86
2018-06-23T11:52:59.832Z,18.84
2018-06-23T11:55:30.574Z,18.82
2018-06-23T11:58:00.757Z,18.81
2018-06-23T12:00:31.580Z,18.81
2018-06-23T12:03:01.794Z,18.87
2018-06-23T12:05:32.521Z,19.00
2018-06-23T12:08:02.762Z,19.14
2018-06-23T12:10:34.085Z,19.22
2018-06-23T12:13:04.312Z,19.27
2018-06-23T12:15:35.486Z,19.31
2018-06-23T12:18:05.762Z,19.32
2018-06-23T12:20:36.500Z,19.30
2018-06-23T12:23:06.894Z,19.24
2018-06-23T12:25:37.323Z,19.23
2018-06-23T12:28:07.961Z,19.19
2018-06-23T12:30:38.196Z,19.16
2018-06-23T12:33:08.470Z,19.14
2018-06-23T12:35:39.044Z,19.10
2018-06-23T12:38:09.207Z,19.06
2018-06-23T12:40:40.067Z,19.04
2018-06-23T12:43:10.194Z,19.01
2018-06-23T12:45:40.558Z,18.97
2018-06-23T12:48:10.851Z,18.93
2018-06-23T12:50:41.493Z,18.91
2018-06-23T12:53:11.585Z,18.93
2018-06-23T12:55:42.133Z,18.97
2018-06-23T12:58:12.318Z,19.05
2018-06-23T13:00:42.517Z,19.12
2018-06-23T13:03:12.717Z,19.22
2018-06-23T13:05:42.939Z,19.34
2018-06-23T13:08:13.222Z,19.43
2018-06-23T13:10:44.008Z,19.43
2018-06-23T13:13:14.348Z,19.47
2018-06-23T13:15:44.448Z,19.53
2018-06-23T13:18:14.708Z,19.60
2018-06-23T13:20:45.187Z,19.69
2018-06-23T13:23:15.519Z,19.82
2018-06-23T13:25:45.740Z,19.94
2018-06-23T13:28:16.169Z,20.06
2018-06-23T13:30:46.282Z,20.18
2018-06-23T13:33:16.378Z,20.33
2018-06-23T13:35:46.749Z,20.44
2018-06-23T13:38:16.555Z,20.53
2018-06-23T13:40:46.911Z,20.59
2018-06-23T13:43:16.927Z,20.61
2018-06-23T13:45:47.210Z,20.58
2018-06-23T13:48:17.507Z,20.51
2018-06-23T13:50:47.826Z,20.51
2018-06-23T13:53:18.316Z,20.53
2018-06-23T13:55:48.524Z,20.55
2018-06-23T13:58:18.761Z,20.57
2018-06-23T14:00:49.177Z,20.61
2018-06-23T14:03:19.503Z,20.67
2018-06-23T14:05:49.891Z,20.71
2018-06-23T14:08:20.235Z,20.72
2018-06-23T14:10:50.592Z,20.75
2018-06-23T14:13:21.229Z,20.77
2018-06-23T14:15:51.708Z,20.78
2018-06-23T14:18:22.766Z,20.78
2018-06-23T14:20:53.833Z,20.78
2018-06-23T14:23:24.213Z,20.78
2018-06-23T14:25:54.349Z,20.78
2018-06-23T14:28:24.872Z,20.80
2018-06-23T14:30:55.047Z,20.82
2018-06-23T14:33:25.822Z,20.84
2018-06-23T14:35:56.160Z,20.88
2018-06-23T14:38:26.544Z,20.91
2018-06-23T14:40:56.804Z,20.95
2018-06-23T14:43:27.267Z,21.01
2018-06-23T14:45:57.800Z,21.08
2018-06-23T14:48:28.159Z,21.14
2018-06-23T14:50:58.826Z,21.19
2018-06-23T14:53:29.175Z,21.24
2018-06-23T14:56:00.048Z,21.27
2018-06-23T14:58:29.948Z,21.36
2018-06-23T15:01:00.231Z,21.42
2018-06-23T15:03:30.534Z,21.47
2018-06-23T15:06:02.703Z,21.49
2018-06-23T15:08:43.740Z,21.48
2018-06-23T15:11:24.359Z,21.47
2018-06-23T15:13:54.412Z,21.48
2018-06-23T15:16:24.901Z,21.51
2018-06-23T15:18:55.315Z,21.52
2018-06-23T15:21:25.774Z,21.52
2018-06-23T15:23:56.125Z,21.57
2018-06-23T15:26:26.865Z,21.62
2018-06-23T15:28:57.098Z,21.65
2018-06-23T15:31:27.500Z,21.67
2018-06-23T15:33:57.692Z,21.71
2018-06-23T15:36:28.001Z,21.76
2018-06-23T15:38:58.171Z,21.80
2018-06-23T15:41:28.627Z,21.84
2018-06-23T15:43:58.723Z,21.89
2018-06-23T15:46:29.008Z,21.91
2018-06-23T15:48:59.107Z,21.93
2018-06-23T15:51:29.549Z,21.89
2018-06-23T15:53:59.969Z,21.86
2018-06-23T15:56:30.508Z,21.86
2018-06-23T15:59:00.899Z,21.82
2018-06-23T16:01:31.255Z,21.79
2018-06-23T16:04:01.154Z,21.79
2018-06-23T16:06:31.652Z,21.75
2018-06-23T16:09:01.807Z,21.72
2018-06-23T16:11:32.048Z,21.68
2018-06-23T16:14:02.998Z,21.68
2018-06-23T16:16:33.431Z,21.68
2018-06-23T16:19:03.539Z,21.67
2018-06-23T16:21:33.690Z,21.65
2018-06-23T16:24:04.004Z,21.64
2018-06-23T16:26:35.400Z,21.61
2018-06-23T16:29:05.688Z,21.58
2018-06-23T16:31:35.970Z,21.57
2018-06-23T16:34:06.427Z,21.56
2018-06-23T16:36:36.922Z,21.52
2018-06-23T16:39:09.445Z,21.49
2018-06-23T16:41:39.992Z,21.46
2018-06-23T16:44:10.317Z,21.44
2018-06-23T16:46:40.481Z,21.37
2018-06-23T16:49:10.838Z,21.33
2018-06-23T16:51:41.128Z,21.29
2018-06-23T16:54:11.563Z,21.26
2018-06-23T16:56:41.803Z,21.21
2018-06-23T16:59:12.147Z,21.15
2018-06-23T17:01:42.206Z,21.06
2018-06-23T17:04:12.579Z,20.98
2018-06-23T17:06:43.160Z,20.89
2018-06-23T17:09:13.323Z,20.83
2018-06-23T17:11:43.706Z,20.79
2018-06-23T17:14:13.889Z,20.74
2018-06-23T17:16:44.305Z,20.69
2018-06-23T17:19:14.899Z,20.64
2018-06-23T17:21:45.417Z,20.57
2018-06-23T17:24:15.415Z,20.51
2018-06-23T17:26:45.702Z,20.45
2018-06-23T17:29:16.384Z,20.40
2018-06-23T17:31:46.967Z,20.33
2018-06-23T17:34:17.333Z,20.26
2018-06-23T17:36:47.545Z,20.19
2018-06-23T17:39:18.068Z,20.12
2018-06-23T17:41:49.765Z,20.03
2018-06-23T17:44:20.356Z,19.96
2018-06-23T17:46:50.812Z,19.93
2018-06-23T17:49:21.106Z,19.91
2018-06-23T17:51:51.606Z,19.90
2018-06-23T17:54:21.937Z,19.87
2018-06-23T17:56:51.892Z,19.85
2018-06-23T17:59:22.387Z,19.83
2018-06-23T18:01:52.851Z,19.81
2018-06-23T18:04:23.152Z,19.77
2018-06-23T18:06:53.379Z,19.70
2018-06-23T18:09:23.730Z,19.66
2018-06-23T18:11:54.115Z,19.64
2018-06-23T18:14:24.221Z,19.65
2018-06-23T18:16:54.430Z,19.64
2018-06-23T18:19:24.600Z,19.61
2018-06-23T18:21:54.726Z,19.58
2018-06-23T18:24:24.986Z,19.55
2018-06-23T18:26:55.127Z,19.47
2018-06-23T18:29:25.381Z,19.41
2018-06-23T18:31:55.861Z,19.36
2018-06-23T18:34:26.324Z,19.31
2018-06-23T18:36:56.340Z,19.27
2018-06-23T18:39:26.603Z,19.20
2018-06-23T18:41:57.100Z,19.17
2018-06-23T18:44:27.714Z,19.14
2018-06-23T18:46:58.026Z,19.10
2018-06-23T18:49:28.330Z,19.03
2018-06-23T18:51:59.894Z,18.93
2018-06-23T18:54:35.097Z,18.90
2018-06-23T18:57:05.881Z,18.91
2018-06-23T18:59:36.327Z,18.92
2018-06-23T19:02:06.580Z,18.86
2018-06-23T19:04:36.755Z,18.86
2018-06-23T19:07:06.903Z,18.83
2018-06-23T19:09:37.476Z,18.83
2018-06-23T19:12:08.698Z,18.83
2018-06-23T19:14:38.926Z,18.84
2018-06-23T19:17:09.519Z,18.82
2018-06-23T19:19:39.910Z,18.82
2018-06-23T19:22:10.075Z,18.83
2018-06-23T19:24:40.277Z,18.79
2018-06-23T19:27:10.567Z,18.81
2018-06-23T19:29:40.740Z,18.81
2018-06-23T19:32:10.933Z,18.72
2018-06-23T19:34:41.053Z,18.71
2018-06-23T19:37:11.260Z,18.65
2018-06-23T19:39:41.352Z,18.63
2018-06-23T19:42:12.745Z,18.56
2018-06-23T19:44:42.921Z,18.51
2018-06-23T19:47:13.148Z,18.47
2018-06-23T19:49:43.396Z,18.45
2018-06-23T19:52:13.534Z,18.44
2018-06-23T19:54:44.637Z,18.42
2018-06-23T19:57:15.270Z,18.40
2018-06-23T19:59:45.556Z,18.43
2018-06-23T20:02:15.957Z,18.46
2018-06-23T20:04:46.148Z,18.50
2018-06-23T20:07:16.358Z,18.50
2018-06-23T20:09:46.626Z,18.50
2018-06-23T20:12:17.154Z,18.51
2018-06-23T20:14:48.888Z,18.53
2018-06-23T20:17:19.196Z,18.55
2018-06-23T20:19:49.404Z,18.53
2018-06-23T20:22:19.697Z,18.57
2018-06-23T20:24:50.435Z,18.57
2018-06-23T20:27:20.530Z,18.56
2018-06-23T20:29:51.066Z,18.57
2018-06-23T20:32:21.104Z,18.53
2018-06-23T20:34:51.215Z,18.56
2018-06-23T20:37:22.119Z,18.54
2018-06-23T20:39:52.252Z,18.52
2018-06-23T20:42:22.327Z,18.47
2018-06-23T20:44:52.863Z,18.42
2018-06-23T20:47:23.057Z,18.41
2018-06-23T20:49:54.010Z,18.43
2018-06-23T20:52:24.035Z,18.45
2018-06-23T20:54:53.900Z,18.46
2018-06-23T20:57:23.915Z,18.46
2018-06-23T20:59:54.030Z,18.44
2018-06-23T21:02:24.332Z,18.42
2018-06-23T21:04:55.398Z,18.39
2018-06-23T21:07:25.609Z,18.40
2018-06-23T21:09:55.997Z,18.39
2018-06-23T21:12:25.985Z,18.40
2018-06-23T21:14:56.318Z,18.40
2018-06-23T21:17:26.433Z,18.40
2018-06-23T21:19:56.458Z,18.35
2018-06-23T21:22:26.578Z,18.38
2018-06-23T21:24:56.681Z,18.37
2018-06-23T21:27:27.014Z,18.39
2018-06-23T21:29:57.292Z,18.43
2018-06-23T21:32:27.589Z,18.44
2018-06-23T21:34:57.983Z,18.46
2018-06-23T21:37:28.905Z,18.48
2018-06-23T21:39:58.915Z,18.48
2018-06-23T21:42:29.566Z,18.49
2018-06-23T21:45:00.045Z,18.47
2018-06-23T21:47:30.399Z,18.46
2018-06-23T21:50:01.767Z,18.44
2018-06-23T21:52:32.446Z,18.43
2018-06-23T21:55:02.872Z,18.41
2018-06-23T21:57:33.275Z,18.38
2018-06-23T22:00:03.846Z,18.38
2018-06-23T22:02:33.714Z,18.33
2018-06-23T22:05:04.428Z,18.28
2018-06-23T22:07:35.025Z,18.23
2018-06-23T22:10:05.113Z,18.19
2018-06-23T22:12:35.335Z,18.18
2018-06-23T22:15:05.589Z,18.17
2018-06-23T22:17:36.035Z,18.16
2018-06-23T22:20:06.633Z,18.13
2018-06-23T22:22:37.187Z,18.13
2018-06-23T22:25:07.387Z,18.15
2018-06-23T22:27:37.780Z,18.12
2018-06-23T22:30:07.846Z,18.08
2018-06-23T22:32:38.169Z,18.05
2018-06-23T22:35:09.082Z,18.02
2018-06-23T22:37:39.740Z,18.02
2018-06-23T22:40:10.356Z,18.02
2018-06-23T22:42:40.352Z,18.02
2018-06-23T22:45:10.731Z,18.03
2018-06-23T22:47:40.814Z,18.02
2018-06-23T22:50:11.373Z,18.03
2018-06-23T22:52:41.553Z,17.98
2018-06-23T22:55:11.880Z,17.90
2018-06-23T22:57:42.882Z,17.93
2018-06-23T23:00:14.271Z,17.88
2018-06-23T23:02:45.798Z,17.84
2018-06-23T23:05:15.908Z,17.80
2018-06-23T23:07:46.162Z,17.80
2018-06-23T23:10:16.359Z,17.82
2018-06-23T23:12:46.802Z,17.85
2018-06-23T23:15:17.112Z,17.77
2018-06-23T23:17:48.292Z,17.76
2018-06-23T23:20:18.479Z,17.67
2018-06-23T23:22:48.824Z,17.65
2018-06-23T23:25:20.339Z,17.56
2018-06-23T23:27:50.284Z,17.47
2018-06-23T23:30:20.543Z,17.36
2018-06-23T23:32:50.891Z,17.27
2018-06-23T23:35:20.982Z,17.15
2018-06-23T23:37:51.238Z,17.16
2018-06-23T23:40:22.083Z,17.11
2018-06-23T23:42:52.108Z,17.04
2018-06-23T23:45:28.700Z,16.95
2018-06-23T23:47:58.817Z,16.87
2018-06-23T23:50:29.022Z,16.82
2018-06-23T23:52:59.452Z,16.78
2018-06-23T23:55:29.576Z,16.75
2018-06-23T23:57:59.656Z,16.72
